Time;durP1;ratioP1;P1;durP2;ratioP2;P2;SDS_P1;SDS_P2;PMS_P1;PMS_P2;Temp;Humidity;BMP_temperature;BMP_pressure;BME280_temperature;BME280_humidity;BME280_pressure;Samples;Min_cycle;Max_cycle;Signal;HPM_P1;HPM_P2
2024/03/07 00:02:02;;;;;;;18.95;12.85;;;;;;;;;;10419413;27;20120;-63
2024/03/07 00:07:01;;;;;;;13.05;11.60;;;;;;;;;;10417879;27;20476;-64
2024/03/07 00:12:00;;;;;;;14.90;12.23;;;;;;;;;;10418363;27;20476;-63
2024/03/07 00:16:59;;;;;;;18.15;11.90;;;;;;;;;;10420677;27;20089;-62
2024/03/07 00:21:58;;;;;;;16.85;11.82;;;;;;;;;;10417811;27;20071;-63
2024/03/07 00:26:58;;;;;;;16.90;12.55;;;;;;;;;;10405106;27;20566;-63
2024/03/07 00:31:58;;;;;;;17.38;12.55;;;;;;;;;;10420977;27;20043;-63
2024/03/07 00:36:59;;;;;;;13.73;11.13;;;;;;;;;;10419881;27;20074;-63
2024/03/07 00:41:57;;;;;;;18.30;12.93;;;;;;;;;;10422878;27;20070;-63
2024/03/07 00:46:56;;;;;;;16.20;12.85;;;;;;;;;;10419695;27;20051;-63
2024/03/07 00:51:55;;;;;;;16.98;11.85;;;;;;;;;;10418717;27;20071;-64
2024/03/07 00:56:55;;;;;;;18.23;12.80;;;;;;;;;;10421164;27;20082;-63
2024/03/07 01:01:53;;;;;;;16.25;11.27;;;;;;;;;;10416703;27;20075;-64
2024/03/07 01:06:52;;;;;;;16.60;11.75;;;;;;;;;;10421136;27;20067;-63
2024/03/07 01:11:50;;;;;;;21.15;13.07;;;;;;;;;;10418082;27;20573;-62
2024/03/07 01:16:50;;;;;;;17.02;13.38;;;;;;;;;;10419491;27;20074;-64
2024/03/07 01:21:48;;;;;;;19.45;12.00;;;;;;;;;;10393955;27;20058;-63
2024/03/07 01:26:47;;;;;;;15.57;11.63;;;;;;;;;;10414717;27;20115;-62
2024/03/07 01:31:46;;;;;;;17.10;13.82;;;;;;;;;;10415779;27;20518;-63
2024/03/07 01:36:46;;;;;;;21.58;13.88;;;;;;;;;;10416971;27;20079;-64
2024/03/07 01:41:44;;;;;;;17.17;12.77;;;;;;;;;;10416533;27;20097;-63
2024/03/07 01:46:42;;;;;;;21.42;13.68;;;;;;;;;;10416850;27;20079;-62
2024/03/07 01:51:40;;;;;;;18.13;14.32;;;;;;;;;;10416306;27;20050;-62
2024/03/07 01:56:40;;;;;;;20.30;13.52;;;;;;;;;;10418116;27;20067;-61
2024/03/07 02:01:39;;;;;;;19.00;13.50;;;;;;;;;;10415899;27;20078;-63
2024/03/07 02:06:37;;;;;;;19.45;13.45;;;;;;;;;;10403781;27;20085;-61
2024/03/07 02:11:35;;;;;;;14.88;13.02;;;;;;;;;;10417120;27;20071;-63
2024/03/07 02:16:35;;;;;;;16.63;12.82;;;;;;;;;;10416486;27;20079;-63
2024/03/07 02:21:35;;;;;;;17.08;13.50;;;;;;;;;;10413194;27;20073;-63
2024/03/07 02:26:33;;;;;;;15.48;12.13;;;;;;;;;;10410274;27;20082;-63
2024/03/07 02:31:36;;;;;;;19.83;14.35;;;;;;;;;;10414479;27;20040;-63
2024/03/07 02:36:36;;;;;;;16.00;13.27;;;;;;;;;;10415093;27;20074;-63
2024/03/07 02:41:35;;;;;;;19.20;16.05;;;;;;;;;;10412696;27;20067;-63
2024/03/07 02:46:33;;;;;;;21.20;15.05;;;;;;;;;;10410449;27;20085;-64
2024/03/07 02:51:31;;;;;;;19.80;14.80;;;;;;;;;;10413729;28;20071;-64
2024/03/07 02:56:31;;;;;;;19.27;14.85;;;;;;;;;;10411117;28;20071;-62
2024/03/07 03:01:32;;;;;;;25.40;15.48;;;;;;;;;;10412017;28;20453;-64
2024/03/07 03:06:31;;;;;;;22.83;14.02;;;;;;;;;;10412958;28;20079;-63
2024/03/07 03:11:31;;;;;;;24.02;15.02;;;;;;;;;;10414362;28;20086;-64
2024/03/07 03:16:29;;;;;;;20.25;15.65;;;;;;;;;;10414147;28;20079;-63
2024/03/07 03:21:45;;;;;;;20.10;15.38;;;;;;;;;;10414461;28;20077;-63
2024/03/07 03:26:44;;;;;;;20.52;16.52;;;;;;;;;;10414580;28;20102;-63
2024/03/07 03:31:43;;;;;;;21.95;16.15;;;;;;;;;;10418051;28;20712;-63
2024/03/07 03:36:41;;;;;;;19.13;15.55;;;;;;;;;;10412385;28;20070;-62
2024/03/07 03:41:40;;;;;;;20.90;16.10;;;;;;;;;;10417819;27;20078;-63
2024/03/07 03:46:39;;;;;;;22.90;16.75;;;;;;;;;;10423537;27;20071;-63
2024/03/07 03:51:38;;;;;;;21.35;16.20;;;;;;;;;;10422357;27;20064;-62
2024/03/07 03:56:36;;;;;;;21.40;16.45;;;;;;;;;;10422224;27;20067;-62
2024/03/07 04:01:35;;;;;;;19.33;16.20;;;;;;;;;;10416968;27;20090;-62
2024/03/07 04:06:35;;;;;;;24.38;18.25;;;;;;;;;;10416706;27;20444;-63
2024/03/07 04:11:33;;;;;;;21.20;16.33;;;;;;;;;;10420589;27;20141;-62
2024/03/07 04:16:32;;;;;;;22.63;15.68;;;;;;;;;;10420639;27;20086;-62
2024/03/07 04:21:30;;;;;;;21.10;15.30;;;;;;;;;;10421343;27;20074;-63
2024/03/07 04:26:30;;;;;;;20.17;14.15;;;;;;;;;;10425938;27;20543;-63
2024/03/07 04:31:28;;;;;;;20.13;14.73;;;;;;;;;;10425054;27;20466;-63
2024/03/07 04:36:26;;;;;;;19.00;15.63;;;;;;;;;;10420199;27;20074;-63
2024/03/07 04:41:25;;;;;;;19.60;15.15;;;;;;;;;;10421616;27;20078;-64
2024/03/07 04:46:24;;;;;;;18.23;14.68;;;;;;;;;;10419517;27;20456;-62
2024/03/07 04:51:23;;;;;;;22.45;14.65;;;;;;;;;;10424444;27;20055;-63
2024/03/07 04:56:21;;;;;;;20.17;13.60;;;;;;;;;;10415881;27;20070;-63
2024/03/07 05:01:19;;;;;;;20.55;14.57;;;;;;;;;;10420153;27;20508;-63
2024/03/07 05:06:20;;;;;;;20.55;14.55;;;;;;;;;;10417013;27;20083;-63
2024/03/07 05:11:19;;;;;;;21.73;13.60;;;;;;;;;;10416869;27;20455;-62
2024/03/07 05:16:17;;;;;;;20.67;14.68;;;;;;;;;;10418779;27;20508;-63
2024/03/07 05:21:35;;;;;;;21.13;13.85;;;;;;;;;;10419746;27;20063;-62
2024/03/07 05:26:37;;;;;;;26.15;15.88;;;;;;;;;;10415809;27;20079;-62
2024/03/07 05:31:35;;;;;;;20.30;13.77;;;;;;;;;;10409852;27;20479;-63
2024/03/07 05:36:33;;;;;;;22.85;14.10;;;;;;;;;;10417257;27;20592;-63
2024/03/07 05:41:32;;;;;;;19.23;14.32;;;;;;;;;;10413138;27;20075;-62
2024/03/07 05:46:31;;;;;;;19.10;13.48;;;;;;;;;;10416904;27;20067;-63
2024/03/07 05:51:29;;;;;;;23.08;15.20;;;;;;;;;;10417784;27;20079;-62
2024/03/07 05:56:28;;;;;;;23.58;16.17;;;;;;;;;;10408319;27;20063;-64
2024/03/07 06:01:27;;;;;;;21.02;14.88;;;;;;;;;;10408634;27;20083;-62
2024/03/07 06:06:27;;;;;;;21.45;14.02;;;;;;;;;;10409860;27;20466;-62
2024/03/07 06:11:25;;;;;;;17.63;13.55;;;;;;;;;;10411041;27;20551;-61
2024/03/07 06:16:23;;;;;;;19.13;14.60;;;;;;;;;;10404121;27;20071;-62
2024/03/07 06:21:22;;;;;;;15.00;12.70;;;;;;;;;;10408049;27;20098;-62
2024/03/07 06:26:36;;;;;;;18.20;14.52;;;;;;;;;;10413161;27;20093;-61
2024/03/07 06:31:35;;;;;;;20.30;15.17;;;;;;;;;;10413164;27;20081;-61
2024/03/07 06:36:33;;;;;;;21.10;16.60;;;;;;;;;;10429183;27;20347;-61
2024/03/07 06:41:33;;;;;;;20.60;14.55;;;;;;;;;;10412978;27;20082;-61
2024/03/07 06:46:32;;;;;;;23.60;15.57;;;;;;;;;;10418587;27;20075;-62
2024/03/07 06:51:30;;;;;;;18.50;12.98;;;;;;;;;;10417225;27;20066;-61
2024/03/07 06:56:28;;;;;;;22.38;14.70;;;;;;;;;;10415400;27;20116;-61
2024/03/07 07:01:29;;;;;;;21.33;15.10;;;;;;;;;;10414176;27;20067;-61
2024/03/07 07:06:29;;;;;;;18.58;14.13;;;;;;;;;;10411347;27;20075;-61
2024/03/07 07:11:28;;;;;;;22.55;13.18;;;;;;;;;;10414252;27;20070;-61
2024/03/07 07:16:35;;;;;;;18.40;14.13;;;;;;;;;;10421984;27;20453;-62
2024/03/07 07:21:34;;;;;;;24.15;12.70;;;;;;;;;;10423707;27;20834;-62
2024/03/07 07:26:32;;;;;;;20.45;12.25;;;;;;;;;;10411036;27;20082;-63
2024/03/07 07:31:32;;;;;;;18.05;11.70;;;;;;;;;;10419145;27;20121;-62
2024/03/07 07:36:32;;;;;;;19.00;13.38;;;;;;;;;;10425082;27;20500;-61
2024/03/07 07:41:31;;;;;;;19.60;12.55;;;;;;;;;;10421027;27;20072;-61
2024/03/07 07:46:30;;;;;;;32.90;13.20;;;;;;;;;;10424515;27;20075;-62
2024/03/07 07:51:28;;;;;;;14.10;11.88;;;;;;;;;;10427666;27;20463;-61
2024/03/07 07:56:28;;;;;;;21.25;12.05;;;;;;;;;;10416693;27;20090;-62
2024/03/07 08:01:27;;;;;;;21.23;11.15;;;;;;;;;;10425137;27;20055;-62
2024/03/07 08:06:26;;;;;;;13.77;12.02;;;;;;;;;;10421183;27;20082;-62
2024/03/07 08:11:24;;;;;;;15.43;11.55;;;;;;;;;;10428812;27;20554;-62
2024/03/07 08:16:24;;;;;;;21.55;11.60;;;;;;;;;;10414986;27;20086;-61
2024/03/07 08:21:23;;;;;;;29.35;17.23;;;;;;;;;;10421127;27;20073;-61
2024/03/07 08:26:21;;;;;;;22.67;12.98;;;;;;;;;;10416578;27;20102;-61
2024/03/07 08:31:19;;;;;;;18.63;12.52;;;;;;;;;;10419049;27;20599;-62
2024/03/07 08:36:19;;;;;;;20.33;12.43;;;;;;;;;;10418673;27;20528;-61
2024/03/07 08:41:17;;;;;;;15.80;12.27;;;;;;;;;;10417161;27;20160;-61
2024/03/07 08:46:16;;;;;;;19.25;12.82;;;;;;;;;;10401772;27;20082;-63
2024/03/07 08:51:14;;;;;;;20.90;12.70;;;;;;;;;;10419225;27;20086;-63
2024/03/07 08:56:14;;;;;;;17.20;12.52;;;;;;;;;;10416013;27;20056;-62
2024/03/07 09:01:12;;;;;;;19.13;13.05;;;;;;;;;;10418625;27;20073;-62
2024/03/07 09:06:15;;;;;;;19.83;14.20;;;;;;;;;;10415902;27;20081;-60
2024/03/07 09:11:15;;;;;;;30.27;22.60;;;;;;;;;;10416941;27;20090;-61
2024/03/07 09:16:14;;;;;;;20.00;14.18;;;;;;;;;;10421770;27;20070;-59
2024/03/07 09:21:12;;;;;;;25.45;15.23;;;;;;;;;;10416944;27;20083;-60
2024/03/07 09:26:10;;;;;;;20.20;16.50;;;;;;;;;;10416527;27;20074;-60
2024/03/07 09:31:10;;;;;;;18.52;12.90;;;;;;;;;;10416330;27;20278;-63
2024/03/07 09:36:08;;;;;;;17.40;11.98;;;;;;;;;;10412879;27;20066;-63
2024/03/07 09:41:07;;;;;;;17.98;13.40;;;;;;;;;;10416269;27;20480;-62
2024/03/07 09:46:06;;;;;;;22.55;17.77;;;;;;;;;;10427578;27;20077;-61
2024/03/07 09:51:09;;;;;;;18.45;13.70;;;;;;;;;;10430787;27;20168;-63
2024/03/07 09:56:08;;;;;;;23.83;13.80;;;;;;;;;;10417427;27;20628;-63
2024/03/07 10:01:11;;;;;;;16.95;13.38;;;;;;;;;;10409222;27;20086;-62
2024/03/07 10:06:11;;;;;;;31.30;19.85;;;;;;;;;;10393376;27;20082;-63
2024/03/07 10:11:09;;;;;;;20.65;13.23;;;;;;;;;;10390627;27;20087;-63
2024/03/07 10:16:11;;;;;;;16.85;13.65;;;;;;;;;;10409686;27;20078;-63
2024/03/07 10:21:11;;;;;;;14.57;12.13;;;;;;;;;;10416061;27;20071;-62
2024/03/07 10:26:11;;;;;;;21.40;13.15;;;;;;;;;;10405860;27;20096;-63
2024/03/07 10:31:11;;;;;;;19.60;13.18;;;;;;;;;;10413005;27;20070;-63
2024/03/07 10:36:13;;;;;;;16.25;13.43;;;;;;;;;;10413978;27;20094;-63
2024/03/07 10:41:12;;;;;;;20.58;13.63;;;;;;;;;;10415850;27;20109;-62
2024/03/07 10:46:11;;;;;;;21.80;13.48;;;;;;;;;;10413135;27;20075;-62
2024/03/07 10:51:15;;;;;;;14.57;12.82;;;;;;;;;;10413263;27;20078;-63
2024/03/07 10:56:19;;;;;;;23.35;16.75;;;;;;;;;;10414129;28;20150;-63
2024/03/07 11:01:20;;;;;;;27.83;18.37;;;;;;;;;;10417227;28;20074;-63
2024/03/07 11:06:20;;;;;;;30.45;21.25;;;;;;;;;;10415024;28;20094;-63
2024/03/07 11:11:18;;;;;;;19.95;16.50;;;;;;;;;;10416296;28;20113;-64
2024/03/07 11:16:17;;;;;;;19.33;16.13;;;;;;;;;;10416958;28;20075;-64
2024/03/07 11:21:30;;;;;;;40.17;31.58;;;;;;;;;;10417518;28;20075;-64
2024/03/07 11:26:30;;;;;;;17.38;14.65;;;;;;;;;;10415231;28;20085;-62
2024/03/07 11:31:30;;;;;;;16.67;13.10;;;;;;;;;;10424283;27;20113;-64
2024/03/07 11:36:43;;;;;;;22.15;13.82;;;;;;;;;;10417675;28;20063;-63
2024/03/07 11:41:43;;;;;;;18.58;11.65;;;;;;;;;;10416799;28;20067;-63
2024/03/07 11:46:44;;;;;;;19.63;13.32;;;;;;;;;;10415571;28;20079;-64
2024/03/07 11:51:42;;;;;;;36.40;22.55;;;;;;;;;;10416122;28;20483;-63
2024/03/07 11:56:40;;;;;;;15.70;12.80;;;;;;;;;;10416398;28;20082;-63
2024/03/07 12:01:42;;;;;;;17.38;12.30;;;;;;;;;;10422004;27;20073;-63
2024/03/07 12:06:40;;;;;;;18.17;12.23;;;;;;;;;;10403841;27;20089;-63
2024/03/07 12:11:41;;;;;;;16.70;12.27;;;;;;;;;;10423991;27;20079;-64
2024/03/07 12:16:40;;;;;;;18.98;13.43;;;;;;;;;;10408077;27;20075;-64
2024/03/07 12:21:39;;;;;;;20.27;13.25;;;;;;;;;;10423980;27;20495;-64
2024/03/07 12:26:39;;;;;;;17.30;12.57;;;;;;;;;;10423667;27;20460;-63
2024/03/07 12:31:37;;;;;;;21.08;13.35;;;;;;;;;;10420624;27;20067;-63
2024/03/07 12:36:45;;;;;;;15.00;12.93;;;;;;;;;;10423727;27;20071;-63
2024/03/07 12:41:45;;;;;;;14.50;12.98;;;;;;;;;;10424420;27;20082;-63
2024/03/07 12:46:46;;;;;;;18.63;14.85;;;;;;;;;;10423788;27;20079;-61
2024/03/07 12:51:46;;;;;;;19.55;16.08;;;;;;;;;;10423503;27;20085;-62
2024/03/07 12:56:44;;;;;;;20.98;16.42;;;;;;;;;;10422865;27;20066;-62
2024/03/07 13:01:44;;;;;;;19.30;16.45;;;;;;;;;;10421875;27;20063;-63
2024/03/07 13:06:43;;;;;;;19.92;15.57;;;;;;;;;;10424276;27;20067;-62
2024/03/07 13:11:46;;;;;;;24.25;15.43;;;;;;;;;;10404681;27;20079;-61
2024/03/07 13:16:45;;;;;;;18.58;15.50;;;;;;;;;;10419105;27;20089;-63
2024/03/07 13:21:43;;;;;;;17.42;14.07;;;;;;;;;;10421229;27;20074;-64
2024/03/07 13:26:44;;;;;;;20.05;16.73;;;;;;;;;;10417338;27;20063;-64
2024/03/07 13:31:44;;;;;;;22.45;16.45;;;;;;;;;;10411832;27;20483;-64
2024/03/07 13:36:43;;;;;;;17.33;15.55;;;;;;;;;;10411521;27;20139;-64
2024/03/07 13:41:48;;;;;;;19.23;15.73;;;;;;;;;;10414241;27;20070;-64
2024/03/07 13:46:47;;;;;;;21.13;18.20;;;;;;;;;;10412552;27;20481;-64
2024/03/07 13:51:52;;;;;;;21.33;17.33;;;;;;;;;;10412664;27;20070;-64
2024/03/07 13:56:56;;;;;;;21.85;19.55;;;;;;;;;;10410790;27;20097;-63
2024/03/07 14:02:03;;;;;;;21.42;17.92;;;;;;;;;;10414044;27;20119;-63
2024/03/07 14:07:12;;;;;;;31.58;24.33;;;;;;;;;;10408635;27;20078;-65
2024/03/07 14:12:25;;;;;;;25.63;22.83;;;;;;;;;;10416240;27;20074;-65
2024/03/07 14:17:54;;;;;;;24.85;18.50;;;;;;;;;;10391176;27;20086;-65
2024/03/07 14:23:02;;;;;;;23.05;17.38;;;;;;;;;;10415456;27;20070;-64
2024/03/07 14:28:12;;;;;;;20.48;16.98;;;;;;;;;;10420256;27;20081;-63
2024/03/07 14:33:12;;;;;;;21.30;18.30;;;;;;;;;;10415835;27;20063;-65
2024/03/07 14:38:24;;;;;;;24.40;20.75;;;;;;;;;;10395452;27;20074;-66
2024/03/07 14:43:24;;;;;;;21.98;18.10;;;;;;;;;;10422848;27;20495;-65
2024/03/07 14:48:23;;;;;;;28.77;23.40;;;;;;;;;;10415818;27;20511;-64
2024/03/07 14:53:23;;;;;;;22.73;20.05;;;;;;;;;;10413156;27;20067;-65
2024/03/07 14:58:21;;;;;;;22.10;19.65;;;;;;;;;;10411759;28;20514;-65
2024/03/07 15:03:19;;;;;;;29.00;23.13;;;;;;;;;;10409829;28;20098;-66
2024/03/07 15:08:22;;;;;;;25.88;19.98;;;;;;;;;;10409958;28;20079;-64
2024/03/07 15:13:21;;;;;;;25.38;20.50;;;;;;;;;;10412420;28;20112;-65
2024/03/07 15:18:19;;;;;;;29.92;24.15;;;;;;;;;;10415037;28;20079;-65
2024/03/07 15:23:19;;;;;;;33.83;24.60;;;;;;;;;;10415837;28;20255;-65
2024/03/07 15:28:17;;;;;;;31.55;26.48;;;;;;;;;;10416520;28;20487;-65
2024/03/07 15:33:18;;;;;;;26.25;21.70;;;;;;;;;;10416623;28;20534;-65
2024/03/07 15:38:19;;;;;;;37.92;28.85;;;;;;;;;;10413096;27;20087;-63
2024/03/07 15:43:19;;;;;;;27.48;19.42;;;;;;;;;;10424258;27;20535;-65
2024/03/07 15:48:19;;;;;;;21.13;18.00;;;;;;;;;;10422892;27;20496;-64
2024/03/07 15:53:20;;;;;;;30.42;23.05;;;;;;;;;;10424223;27;20070;-65
2024/03/07 15:58:20;;;;;;;25.77;19.60;;;;;;;;;;10422762;27;20532;-65
2024/03/07 16:03:20;;;;;;;24.17;19.40;;;;;;;;;;10423787;27;20496;-65
2024/03/07 16:08:19;;;;;;;25.88;22.65;;;;;;;;;;10423409;27;20079;-64
2024/03/07 16:13:17;;;;;;;30.83;22.08;;;;;;;;;;10422468;27;20532;-65
2024/03/07 16:18:17;;;;;;;54.53;36.83;;;;;;;;;;10422820;27;20051;-65
2024/03/07 16:23:16;;;;;;;41.28;34.40;;;;;;;;;;10421933;27;20071;-65
2024/03/07 16:28:17;;;;;;;52.88;34.60;;;;;;;;;;10420885;27;20082;-65
2024/03/07 16:33:17;;;;;;;27.98;22.13;;;;;;;;;;10422564;27;20054;-65
2024/03/07 16:38:16;;;;;;;26.35;21.00;;;;;;;;;;10421338;27;20503;-65
2024/03/07 16:43:14;;;;;;;23.73;19.98;;;;;;;;;;10419807;27;20078;-65
2024/03/07 16:48:15;;;;;;;25.23;19.23;;;;;;;;;;10419774;27;20083;-65
2024/03/07 16:53:16;;;;;;;24.00;18.75;;;;;;;;;;10421828;27;20067;-65
2024/03/07 16:58:16;;;;;;;25.40;20.70;;;;;;;;;;10420370;27;20100;-65
2024/03/07 17:03:15;;;;;;;21.75;18.58;;;;;;;;;;10420267;27;20074;-65
2024/03/07 17:08:15;;;;;;;26.73;21.17;;;;;;;;;;10420229;27;20075;-65
2024/03/07 17:13:16;;;;;;;32.30;25.38;;;;;;;;;;10419476;27;20081;-65
2024/03/07 17:18:15;;;;;;;34.45;23.55;;;;;;;;;;10418874;27;20074;-65
2024/03/07 17:23:16;;;;;;;33.33;22.40;;;;;;;;;;10419119;27;20085;-65
2024/03/07 17:28:16;;;;;;;27.50;20.52;;;;;;;;;;10419369;27;20629;-66
2024/03/07 17:33:16;;;;;;;29.73;20.13;;;;;;;;;;10419323;27;20050;-66
2024/03/07 17:38:14;;;;;;;28.00;21.55;;;;;;;;;;10400428;27;20047;-66
2024/03/07 17:43:13;;;;;;;27.98;22.15;;;;;;;;;;10419551;27;20522;-66
2024/03/07 17:48:13;;;;;;;27.13;21.33;;;;;;;;;;10418599;27;20066;-66
2024/03/07 17:53:13;;;;;;;26.17;20.35;;;;;;;;;;10419645;27;20467;-64
2024/03/07 17:58:13;;;;;;;26.23;19.80;;;;;;;;;;10419088;27;20067;-65
2024/03/07 18:03:16;;;;;;;23.55;20.83;;;;;;;;;;10418544;27;20090;-65
2024/03/07 18:08:16;;;;;;;23.33;19.00;;;;;;;;;;10399002;27;20089;-65
2024/03/07 18:13:18;;;;;;;23.52;19.45;;;;;;;;;;10418856;27;20501;-66
2024/03/07 18:18:18;;;;;;;30.10;19.33;;;;;;;;;;10397584;27;20051;-65
2024/03/07 18:23:16;;;;;;;27.00;22.23;;;;;;;;;;10416820;27;20461;-65
2024/03/07 18:28:19;;;;;;;36.53;23.25;;;;;;;;;;10417669;27;20455;-65
2024/03/07 18:33:20;;;;;;;23.38;19.25;;;;;;;;;;10407353;27;20047;-65
2024/03/07 18:38:18;;;;;;;24.60;19.85;;;;;;;;;;10416707;27;20534;-64
2024/03/07 18:43:17;;;;;;;33.65;21.88;;;;;;;;;;10417626;27;20074;-65
2024/03/07 18:48:15;;;;;;;31.02;20.73;;;;;;;;;;10416972;27;20534;-64
2024/03/07 18:53:18;;;;;;;27.48;20.58;;;;;;;;;;10415759;27;20090;-65
2024/03/07 18:58:18;;;;;;;25.85;20.10;;;;;;;;;;10417574;28;20070;-65
2024/03/07 19:03:19;;;;;;;30.73;21.73;;;;;;;;;;10419935;28;20067;-64
2024/03/07 19:08:23;;;;;;;33.42;22.27;;;;;;;;;;10424593;28;20468;-66
2024/03/07 19:13:22;;;;;;;28.27;21.20;;;;;;;;;;10430989;27;20083;-65
2024/03/07 19:18:22;;;;;;;30.92;25.20;;;;;;;;;;10428571;27;20726;-65
2024/03/07 19:23:23;;;;;;;28.50;24.67;;;;;;;;;;10424373;27;20066;-65
2024/03/07 19:28:24;;;;;;;29.00;21.58;;;;;;;;;;10421456;27;20546;-65
2024/03/07 19:33:25;;;;;;;28.02;21.50;;;;;;;;;;10414778;27;20066;-65
2024/03/07 19:38:27;;;;;;;33.92;23.20;;;;;;;;;;10423108;27;20067;-64
2024/03/07 19:43:26;;;;;;;29.88;24.02;;;;;;;;;;10419506;27;20130;-64
2024/03/07 19:48:24;;;;;;;27.10;20.50;;;;;;;;;;10397828;27;20094;-64
2024/03/07 19:53:25;;;;;;;30.50;21.08;;;;;;;;;;10415005;27;20098;-63
2024/03/07 19:58:25;;;;;;;24.60;17.85;;;;;;;;;;10420885;27;20078;-64
2024/03/07 20:03:24;;;;;;;28.60;21.83;;;;;;;;;;10417071;27;20063;-63
2024/03/07 20:08:26;;;;;;;26.70;19.23;;;;;;;;;;10393983;27;20384;-63
2024/03/07 20:13:27;;;;;;;21.37;17.90;;;;;;;;;;10421082;27;20089;-64
2024/03/07 20:18:26;;;;;;;24.55;19.50;;;;;;;;;;10416317;27;20048;-64
2024/03/07 20:23:27;;;;;;;25.85;19.40;;;;;;;;;;10421344;27;20499;-64
2024/03/07 20:28:26;;;;;;;22.95;18.92;;;;;;;;;;10399474;27;20056;-63
2024/03/07 20:33:26;;;;;;;30.77;20.08;;;;;;;;;;10417321;27;20071;-64
2024/03/07 20:38:24;;;;;;;23.75;20.20;;;;;;;;;;10417673;27;20074;-64
2024/03/07 20:43:23;;;;;;;29.15;21.50;;;;;;;;;;10418530;27;20070;-63
2024/03/07 20:48:22;;;;;;;30.88;23.92;;;;;;;;;;10416484;27;20070;-64
2024/03/07 20:53:22;;;;;;;26.75;22.38;;;;;;;;;;10416494;27;20075;-64
2024/03/07 20:58:22;;;;;;;29.65;22.77;;;;;;;;;;10424737;27;20078;-66
2024/03/07 21:03:22;;;;;;;27.13;20.02;;;;;;;;;;10421384;27;20066;-65
2024/03/07 21:08:23;;;;;;;28.73;21.27;;;;;;;;;;10426999;27;20061;-64
2024/03/07 21:13:21;;;;;;;25.35;18.92;;;;;;;;;;10414328;27;20105;-64
2024/03/07 21:18:22;;;;;;;24.35;18.80;;;;;;;;;;10422590;27;20070;-65
2024/03/07 21:23:23;;;;;;;29.05;22.45;;;;;;;;;;10413098;27;20449;-65
2024/03/07 21:28:22;;;;;;;28.40;20.40;;;;;;;;;;10419374;27;20078;-64
2024/03/07 21:33:21;;;;;;;31.95;22.83;;;;;;;;;;10417178;27;20069;-64
2024/03/07 21:38:20;;;;;;;27.48;20.73;;;;;;;;;;10412580;27;20510;-64
2024/03/07 21:43:19;;;;;;;30.90;23.05;;;;;;;;;;10418038;27;20070;-65
2024/03/07 21:48:21;;;;;;;32.90;22.77;;;;;;;;;;10424898;27;20427;-65
2024/03/07 21:53:20;;;;;;;35.90;24.77;;;;;;;;;;10419687;27;20074;-64
2024/03/07 21:58:20;;;;;;;22.85;19.40;;;;;;;;;;10414195;27;20086;-64
2024/03/07 22:03:18;;;;;;;25.90;21.15;;;;;;;;;;10416805;27;20094;-64
2024/03/07 22:08:16;;;;;;;28.60;20.13;;;;;;;;;;10415349;27;20075;-64
2024/03/07 22:13:19;;;;;;;25.25;19.85;;;;;;;;;;10413731;27;20507;-64
2024/03/07 22:18:20;;;;;;;26.13;20.17;;;;;;;;;;10412612;27;20070;-65
2024/03/07 22:23:20;;;;;;;24.77;21.25;;;;;;;;;;10394624;27;20125;-65
2024/03/07 22:28:18;;;;;;;24.85;21.00;;;;;;;;;;10413569;27;20074;-64
2024/03/07 22:33:17;;;;;;;27.48;21.30;;;;;;;;;;10417040;27;20452;-64
2024/03/07 22:38:21;;;;;;;26.90;21.00;;;;;;;;;;10396212;27;20090;-64
2024/03/07 22:43:20;;;;;;;29.02;21.85;;;;;;;;;;10414641;27;20434;-63
2024/03/07 22:48:18;;;;;;;25.88;19.90;;;;;;;;;;10419484;27;20074;-64
2024/03/07 22:53:18;;;;;;;27.23;20.27;;;;;;;;;;10412859;27;20464;-64
2024/03/07 22:58:16;;;;;;;27.60;21.25;;;;;;;;;;10412118;27;20551;-63
2024/03/07 23:03:15;;;;;;;26.42;21.90;;;;;;;;;;10414273;27;20071;-63
2024/03/07 23:08:13;;;;;;;29.70;21.95;;;;;;;;;;10414053;27;20185;-64
2024/03/07 23:13:13;;;;;;;29.08;21.02;;;;;;;;;;10413932;27;20079;-64
2024/03/07 23:18:11;;;;;;;25.42;20.65;;;;;;;;;;10414708;27;20070;-62
2024/03/07 23:23:10;;;;;;;28.73;21.15;;;;;;;;;;10419587;28;20039;-63
2024/03/07 23:28:08;;;;;;;26.73;21.55;;;;;;;;;;10413321;27;20066;-65
2024/03/07 23:33:08;;;;;;;36.60;24.65;;;;;;;;;;10394688;28;20101;-63
2024/03/07 23:38:06;;;;;;;26.10;20.60;;;;;;;;;;10412807;27;20058;-63
2024/03/07 23:43:08;;;;;;;29.38;22.05;;;;;;;;;;10413375;27;20070;-64
2024/03/07 23:48:11;;;;;;;33.55;27.33;;;;;;;;;;10418163;27;20063;-64
2024/03/07 23:53:09;;;;;;;24.48;21.35;;;;;;;;;;10412857;27;20085;-64
2024/03/07 23:58:08;;;;;;;26.60;22.10;;;;;;;;;;10415617;27;20059;-64
